»·PEaware :: N610PS KSBA-KBUR

N610PS :: KSBA-KBUR

FLIGHT INFORMATION

Flight Status: Arrived
Operator: Privately registered:
United States
More flights under this callsign
Pilot: Anonymous 33704 (33704)
Aircraft: CESSNA 172 SKYHAWK
(C172)
More flights by this aircraft type
Origin: KSBA Santa Barbara Mun
United States
Destination: KBUR Bob Hope-Burbank
United States
More flights between these airports :: More routes between these airports
Route:
File this flight plan on PilotEdge
Remarks:
Altitude:
(Current/Filed)
5,500ft
Speed:
(Current/Filed)
120kts
Departed: 21-Feb-21 10:20 PM
Arrived: 21-Feb-21 10:57 PM
Distance/Time
Traveled:
74nm/0:36
Distance/Time
To Go:
Arrived

Flight Plot

Page will automatically refresh every two minutes.


Map Options




Map Legend


Flown Route
Filed Route
Departure Airport
Arrival Airport
Navaid (VOR, NDB)
Fix

Horizontal Profiles

Position Reports

Time Latitude Longitude Heading Altitude Ground
Speed
21-Feb-21 22:06 34.422664 -119.835593 340 11ft 0kts
21-Feb-21 22:07 34.422744 -119.835739 287 11ft 5kts
21-Feb-21 22:08 34.422782 -119.836236 262 11ft 0kts
21-Feb-21 22:09 34.422782 -119.836236 262 11ft 0kts
21-Feb-21 22:10 34.422782 -119.836236 262 11ft 0kts
21-Feb-21 22:11 34.422782 -119.836236 262 11ft 0kts
21-Feb-21 22:12 34.422781 -119.836240 263 11ft 0kts
21-Feb-21 22:13 34.423619 -119.837430 349 12ft 11kts
21-Feb-21 22:14 34.427163 -119.838495 344 12ft 15kts
21-Feb-21 22:15 34.429856 -119.839309 349 14ft 8kts
21-Feb-21 22:16 34.430660 -119.839728 277 14ft 0kts
21-Feb-21 22:17 34.430660 -119.839728 277 14ft 0kts
21-Feb-21 22:18 34.429664 -119.841269 167 14ft 24kts
21-Feb-21 22:19 34.409580 -119.836660 177 616ft 80kts
21-Feb-21 22:20 34.386858 -119.831049 175 1368ft 89kts
21-Feb-21 22:21 34.372640 -119.808199 116 2008ft 99kts
21-Feb-21 22:22 34.356106 -119.782035 106 2710ft 97kts
21-Feb-21 22:23 34.347167 -119.746371 106 2998ft 119kts
21-Feb-21 22:24 34.337815 -119.708081 106 3396ft 117kts
21-Feb-21 22:25 34.329610 -119.670038 99 3794ft 116kts
21-Feb-21 22:26 34.324976 -119.630526 96 4113ft 120kts
21-Feb-21 22:27 34.321218 -119.590278 96 4414ft 120kts
21-Feb-21 22:28 34.317451 -119.549868 95 4675ft 123kts
21-Feb-21 22:29 34.313587 -119.508377 95 4877ft 125kts
21-Feb-21 22:30 34.309623 -119.465747 95 4982ft 128kts
21-Feb-21 22:31 34.305641 -119.422857 95 5082ft 128kts
21-Feb-21 22:32 34.301618 -119.379900 95 5181ft 128kts
21-Feb-21 22:33 34.297560 -119.336975 96 5281ft 128kts
21-Feb-21 22:34 34.293490 -119.294157 96 5380ft 128kts
21-Feb-21 22:35 34.289407 -119.251355 96 5480ft 128kts
21-Feb-21 22:36 34.285253 -119.207984 96 5500ft 131kts
21-Feb-21 22:37 34.281042 -119.164168 96 5499ft 131kts
21-Feb-21 22:38 34.276793 -119.120164 96 5499ft 131kts
21-Feb-21 22:39 34.272548 -119.076316 96 5499ft 131kts
21-Feb-21 22:40 34.268279 -119.032362 96 5499ft 131kts
21-Feb-21 22:41 34.263985 -118.988307 96 5500ft 133kts
21-Feb-21 22:42 34.259689 -118.944461 96 5499ft 134kts
21-Feb-21 22:43 34.255259 -118.899760 96 5499ft 134kts
21-Feb-21 22:44 34.250836 -118.854988 96 5499ft 134kts
21-Feb-21 22:45 34.246302 -118.809205 96 5336ft 139kts
21-Feb-21 22:46 34.241664 -118.762481 96 5031ft 144kts
21-Feb-21 22:47 34.236817 -118.713965 96 4534ft 146kts
21-Feb-21 22:48 34.231919 -118.665252 97 4033ft 146kts
21-Feb-21 22:49 34.224165 -118.617351 100 3534ft 145kts
21-Feb-21 22:50 34.216402 -118.569913 100 3198ft 138kts
21-Feb-21 22:51 34.209124 -118.525420 100 3199ft 134kts
21-Feb-21 22:52 34.202996 -118.481172 98 3199ft 134kts
21-Feb-21 22:54 34.197990 -118.435444 90 2497ft 157kts
21-Feb-21 22:55 34.197944 -118.391219 91 1309ft 84kts
21-Feb-21 22:56 34.197839 -118.367415 88 728ft 57kts
21-Feb-21 22:57 34.198592 -118.360257 357 718ft 0kts
21-Feb-21 22:58 34.198913 -118.361136 272 721ft 9kts
21-Feb-21 22:59 34.199569 -118.364568 3 725ft 7kts
21-Feb-21 23:00 34.200537 -118.364404 358 728ft 0kts

Navigation Log

Ident Type
Flight plan parsing failed, navigation log unavailable